sensor_id;sensor_type;location;lat;lon;timestamp;temperature;humidity
11043;DHT22;5574;48.786;10.120;2023-07-13T00:01:45;19.40;99.90
11043;DHT22;5574;48.786;10.120;2023-07-13T00:04:15;19.30;99.90
11043;DHT22;5574;48.786;10.120;2023-07-13T00:06:42;19.30;99.90
11043;DHT22;5574;48.786;10.120;2023-07-13T00:09:10;19.30;99.90
11043;DHT22;5574;48.786;10.120;2023-07-13T00:11:37;19.30;99.90
11043;DHT22;5574;48.786;10.120;2023-07-13T00:14:03;19.30;99.90
11043;DHT22;5574;48.786;10.120;2023-07-13T00:16:33;19.30;99.90
11043;DHT22;5574;48.786;10.120;2023-07-13T00:19:00;19.30;99.90
11043;DHT22;5574;48.786;10.120;2023-07-13T00:21:27;19.30;99.90
11043;DHT22;5574;48.786;10.120;2023-07-13T00:23:54;19.30;99.90
11043;DHT22;5574;48.786;10.120;2023-07-13T00:26:21;19.30;99.90
11043;DHT22;5574;48.786;10.120;2023-07-13T00:28:48;19.20;99.90
11043;DHT22;5574;48.786;10.120;2023-07-13T00:31:15;19.20;99.90
11043;DHT22;5574;48.786;10.120;2023-07-13T00:33:43;19.00;99.90
11043;DHT22;5574;48.786;10.120;2023-07-13T00:36:10;19.00;99.90
11043;DHT22;5574;48.786;10.120;2023-07-13T00:38:37;19.00;99.90
11043;DHT22;5574;48.786;10.120;2023-07-13T00:41:04;19.00;99.90
11043;DHT22;5574;48.786;10.120;2023-07-13T00:43:31;19.00;99.90
11043;DHT22;5574;48.786;10.120;2023-07-13T00:46:22;19.00;99.90
11043;DHT22;5574;48.786;10.120;2023-07-13T00:48:51;19.00;99.90
11043;DHT22;5574;48.786;10.120;2023-07-13T00:51:23;19.00;99.90
11043;DHT22;5574;48.786;10.120;2023-07-13T00:53:53;19.00;99.90
11043;DHT22;5574;48.786;10.120;2023-07-13T00:56:20;19.00;99.90
11043;DHT22;5574;48.786;10.120;2023-07-13T00:58:47;19.00;99.90
11043;DHT22;5574;48.786;10.120;2023-07-13T01:01:15;18.90;99.90
11043;DHT22;5574;48.786;10.120;2023-07-13T01:03:41;19.00;99.90
11043;DHT22;5574;48.786;10.120;2023-07-13T01:06:10;18.80;99.90
11043;DHT22;5574;48.786;10.120;2023-07-13T01:08:37;18.90;99.90
11043;DHT22;5574;48.786;10.120;2023-07-13T01:11:05;18.90;99.90
11043;DHT22;5574;48.786;10.120;2023-07-13T01:13:33;18.90;99.90
11043;DHT22;5574;48.786;10.120;2023-07-13T01:16:04;18.90;99.90
11043;DHT22;5574;48.786;10.120;2023-07-13T01:18:35;18.90;99.90
11043;DHT22;5574;48.786;10.120;2023-07-13T01:21:04;18.80;99.90
11043;DHT22;5574;48.786;10.120;2023-07-13T01:23:32;18.90;99.90
11043;DHT22;5574;48.786;10.120;2023-07-13T01:25:59;19.00;99.90
11043;DHT22;5574;48.786;10.120;2023-07-13T01:28:27;19.10;99.90
11043;DHT22;5574;48.786;10.120;2023-07-13T01:30:55;19.20;99.90
11043;DHT22;5574;48.786;10.120;2023-07-13T01:33:22;19.30;99.90
11043;DHT22;5574;48.786;10.120;2023-07-13T01:35:48;19.30;99.90
11043;DHT22;5574;48.786;10.120;2023-07-13T01:38:18;19.40;99.90
11043;DHT22;5574;48.786;10.120;2023-07-13T01:40:46;19.40;99.90
11043;DHT22;5574;48.786;10.120;2023-07-13T01:43:12;19.50;99.90
11043;DHT22;5574;48.786;10.120;2023-07-13T01:45:39;19.50;99.90
11043;DHT22;5574;48.786;10.120;2023-07-13T01:48:06;19.50;99.90
11043;DHT22;5574;48.786;10.120;2023-07-13T01:50:33;19.60;99.90
11043;DHT22;5574;48.786;10.120;2023-07-13T01:52:59;19.60;99.80
11043;DHT22;5574;48.786;10.120;2023-07-13T01:55:28;19.60;99.90
11043;DHT22;5574;48.786;10.120;2023-07-13T01:57:55;19.60;99.90
11043;DHT22;5574;48.786;10.120;2023-07-13T02:00:22;19.60;99.90
11043;DHT22;5574;48.786;10.120;2023-07-13T02:02:50;19.70;99.90
11043;DHT22;5574;48.786;10.120;2023-07-13T02:05:16;19.70;99.80
11043;DHT22;5574;48.786;10.120;2023-07-13T02:07:43;19.60;99.90
11043;DHT22;5574;48.786;10.120;2023-07-13T02:10:11;19.60;99.90
11043;DHT22;5574;48.786;10.120;2023-07-13T02:12:40;19.60;99.90
11043;DHT22;5574;48.786;10.120;2023-07-13T02:15:07;19.60;99.90
11043;DHT22;5574;48.786;10.120;2023-07-13T02:17:35;19.60;99.90
11043;DHT22;5574;48.786;10.120;2023-07-13T02:20:03;19.50;99.90
11043;DHT22;5574;48.786;10.120;2023-07-13T02:22:31;19.50;99.90
11043;DHT22;5574;48.786;10.120;2023-07-13T02:24:57;19.50;99.90
11043;DHT22;5574;48.786;10.120;2023-07-13T02:27:24;19.50;99.90
11043;DHT22;5574;48.786;10.120;2023-07-13T02:29:52;19.50;99.90
11043;DHT22;5574;48.786;10.120;2023-07-13T02:32:19;19.50;99.90
11043;DHT22;5574;48.786;10.120;2023-07-13T02:34:45;19.50;99.90
11043;DHT22;5574;48.786;10.120;2023-07-13T02:37:12;19.40;99.90
11043;DHT22;5574;48.786;10.120;2023-07-13T02:39:39;19.40;99.90
11043;DHT22;5574;48.786;10.120;2023-07-13T02:42:06;19.40;99.90
11043;DHT22;5574;48.786;10.120;2023-07-13T02:44:33;19.30;99.90
11043;DHT22;5574;48.786;10.120;2023-07-13T02:47:01;19.30;99.90
11043;DHT22;5574;48.786;10.120;2023-07-13T02:49:27;19.30;99.90
11043;DHT22;5574;48.786;10.120;2023-07-13T02:51:54;19.30;99.90
11043;DHT22;5574;48.786;10.120;2023-07-13T02:54:21;19.20;99.90
11043;DHT22;5574;48.786;10.120;2023-07-13T02:56:47;19.20;99.90
11043;DHT22;5574;48.786;10.120;2023-07-13T02:59:14;19.10;99.90
11043;DHT22;5574;48.786;10.120;2023-07-13T03:01:41;19.10;99.90
11043;DHT22;5574;48.786;10.120;2023-07-13T03:04:09;19.00;99.90
11043;DHT22;5574;48.786;10.120;2023-07-13T03:06:35;19.00;99.90
11043;DHT22;5574;48.786;10.120;2023-07-13T03:09:02;18.90;99.90
11043;DHT22;5574;48.786;10.120;2023-07-13T03:11:29;18.90;99.90
11043;DHT22;5574;48.786;10.120;2023-07-13T03:13:56;18.90;99.90
11043;DHT22;5574;48.786;10.120;2023-07-13T03:16:23;18.80;99.90
11043;DHT22;5574;48.786;10.120;2023-07-13T03:18:50;18.80;99.90
11043;DHT22;5574;48.786;10.120;2023-07-13T03:21:18;18.80;99.90
11043;DHT22;5574;48.786;10.120;2023-07-13T03:23:45;18.80;99.90
11043;DHT22;5574;48.786;10.120;2023-07-13T03:26:13;18.70;99.90
11043;DHT22;5574;48.786;10.120;2023-07-13T03:28:41;18.70;99.90
11043;DHT22;5574;48.786;10.120;2023-07-13T03:31:10;18.70;99.90
11043;DHT22;5574;48.786;10.120;2023-07-13T03:33:37;18.60;99.90
11043;DHT22;5574;48.786;10.120;2023-07-13T03:36:05;18.60;99.90
11043;DHT22;5574;48.786;10.120;2023-07-13T03:38:33;18.50;99.90
11043;DHT22;5574;48.786;10.120;2023-07-13T03:41:00;18.50;99.90
11043;DHT22;5574;48.786;10.120;2023-07-13T03:43:27;18.50;99.90
11043;DHT22;5574;48.786;10.120;2023-07-13T03:45:54;18.50;99.90
11043;DHT22;5574;48.786;10.120;2023-07-13T03:48:21;18.40;99.90
11043;DHT22;5574;48.786;10.120;2023-07-13T03:50:48;18.50;99.90
11043;DHT22;5574;48.786;10.120;2023-07-13T03:53:14;18.40;99.90
11043;DHT22;5574;48.786;10.120;2023-07-13T03:55:42;18.50;99.90
11043;DHT22;5574;48.786;10.120;2023-07-13T03:58:31;18.40;99.90
11043;DHT22;5574;48.786;10.120;2023-07-13T04:00:58;18.50;99.90
11043;DHT22;5574;48.786;10.120;2023-07-13T04:03:25;18.40;99.90
11043;DHT22;5574;48.786;10.120;2023-07-13T04:05:53;18.50;99.90
11043;DHT22;5574;48.786;10.120;2023-07-13T04:08:20;18.50;99.90
11043;DHT22;5574;48.786;10.120;2023-07-13T04:10:48;18.50;99.90
11043;DHT22;5574;48.786;10.120;2023-07-13T04:13:14;18.50;99.90
11043;DHT22;5574;48.786;10.120;2023-07-13T04:15:41;18.60;99.90
11043;DHT22;5574;48.786;10.120;2023-07-13T04:18:08;18.60;99.90
11043;DHT22;5574;48.786;10.120;2023-07-13T04:20:35;18.60;99.90
11043;DHT22;5574;48.786;10.120;2023-07-13T04:23:02;18.60;99.90
11043;DHT22;5574;48.786;10.120;2023-07-13T04:25:29;18.60;99.90
11043;DHT22;5574;48.786;10.120;2023-07-13T04:27:57;18.60;99.90
11043;DHT22;5574;48.786;10.120;2023-07-13T04:30:24;18.70;99.90
11043;DHT22;5574;48.786;10.120;2023-07-13T04:32:51;18.70;99.90
11043;DHT22;5574;48.786;10.120;2023-07-13T04:35:18;18.80;99.90
11043;DHT22;5574;48.786;10.120;2023-07-13T04:37:46;18.80;98.80
11043;DHT22;5574;48.786;10.120;2023-07-13T04:40:14;18.80;99.90
11043;DHT22;5574;48.786;10.120;2023-07-13T04:42:40;18.80;99.20
11043;DHT22;5574;48.786;10.120;2023-07-13T04:45:09;18.80;99.70
11043;DHT22;5574;48.786;10.120;2023-07-13T04:47:35;18.90;99.80
11043;DHT22;5574;48.786;10.120;2023-07-13T04:50:03;18.90;99.80
11043;DHT22;5574;48.786;10.120;2023-07-13T04:52:30;19.00;99.30
11043;DHT22;5574;48.786;10.120;2023-07-13T04:54:58;19.00;99.80
11043;DHT22;5574;48.786;10.120;2023-07-13T04:57:25;19.10;99.20
11043;DHT22;5574;48.786;10.120;2023-07-13T04:59:52;19.10;98.80
11043;DHT22;5574;48.786;10.120;2023-07-13T05:02:21;19.00;98.00
11043;DHT22;5574;48.786;10.120;2023-07-13T05:04:48;19.00;98.30
11043;DHT22;5574;48.786;10.120;2023-07-13T05:07:15;19.10;99.10
11043;DHT22;5574;48.786;10.120;2023-07-13T05:09:42;19.10;98.20
11043;DHT22;5574;48.786;10.120;2023-07-13T05:12:09;19.10;98.60
11043;DHT22;5574;48.786;10.120;2023-07-13T05:14:36;19.10;98.80
11043;DHT22;5574;48.786;10.120;2023-07-13T05:17:03;19.20;97.70
11043;DHT22;5574;48.786;10.120;2023-07-13T05:19:31;19.10;97.90
11043;DHT22;5574;48.786;10.120;2023-07-13T05:21:58;19.20;97.70
11043;DHT22;5574;48.786;10.120;2023-07-13T05:24:25;19.10;97.90
11043;DHT22;5574;48.786;10.120;2023-07-13T05:26:51;19.20;98.50
11043;DHT22;5574;48.786;10.120;2023-07-13T05:29:19;19.30;98.70
11043;DHT22;5574;48.786;10.120;2023-07-13T05:31:46;19.30;97.50
11043;DHT22;5574;48.786;10.120;2023-07-13T05:34:12;19.30;99.40
11043;DHT22;5574;48.786;10.120;2023-07-13T05:36:41;19.40;98.40
11043;DHT22;5574;48.786;10.120;2023-07-13T05:39:08;19.40;98.60
11043;DHT22;5574;48.786;10.120;2023-07-13T05:41:35;19.40;96.90
11043;DHT22;5574;48.786;10.120;2023-07-13T05:44:02;19.40;97.70
11043;DHT22;5574;48.786;10.120;2023-07-13T05:46:29;19.40;97.50
11043;DHT22;5574;48.786;10.120;2023-07-13T05:48:56;19.40;97.50
11043;DHT22;5574;48.786;10.120;2023-07-13T05:51:23;19.40;99.30
11043;DHT22;5574;48.786;10.120;2023-07-13T05:53:51;19.30;97.20
11043;DHT22;5574;48.786;10.120;2023-07-13T05:56:17;19.30;96.90
11043;DHT22;5574;48.786;10.120;2023-07-13T05:58:44;19.40;99.00
11043;DHT22;5574;48.786;10.120;2023-07-13T06:01:12;19.40;98.80
11043;DHT22;5574;48.786;10.120;2023-07-13T06:03:39;19.40;98.00
11043;DHT22;5574;48.786;10.120;2023-07-13T06:06:08;19.40;97.80
11043;DHT22;5574;48.786;10.120;2023-07-13T06:08:35;19.50;98.60
11043;DHT22;5574;48.786;10.120;2023-07-13T06:11:04;19.50;97.60
11043;DHT22;5574;48.786;10.120;2023-07-13T06:13:31;19.50;98.20
11043;DHT22;5574;48.786;10.120;2023-07-13T06:15:59;19.60;98.50
11043;DHT22;5574;48.786;10.120;2023-07-13T06:18:25;19.60;97.10
11043;DHT22;5574;48.786;10.120;2023-07-13T06:20:52;19.60;96.70
11043;DHT22;5574;48.786;10.120;2023-07-13T06:23:19;19.60;97.40
11043;DHT22;5574;48.786;10.120;2023-07-13T06:25:45;19.60;97.50
11043;DHT22;5574;48.786;10.120;2023-07-13T06:28:13;19.70;97.80
11043;DHT22;5574;48.786;10.120;2023-07-13T06:30:40;19.80;96.70
11043;DHT22;5574;48.786;10.120;2023-07-13T06:33:07;19.90;97.20
11043;DHT22;5574;48.786;10.120;2023-07-13T06:35:34;19.90;97.60
11043;DHT22;5574;48.786;10.120;2023-07-13T06:38:01;20.00;96.30
11043;DHT22;5574;48.786;10.120;2023-07-13T06:40:28;20.10;95.40
11043;DHT22;5574;48.786;10.120;2023-07-13T06:42:55;20.00;95.60
11043;DHT22;5574;48.786;10.120;2023-07-13T06:45:23;20.00;95.80
11043;DHT22;5574;48.786;10.120;2023-07-13T06:47:50;20.10;95.60
11043;DHT22;5574;48.786;10.120;2023-07-13T06:50:17;20.20;95.40
11043;DHT22;5574;48.786;10.120;2023-07-13T06:52:43;20.40;95.80
11043;DHT22;5574;48.786;10.120;2023-07-13T06:55:10;20.40;95.30
11043;DHT22;5574;48.786;10.120;2023-07-13T06:57:37;20.60;95.40
11043;DHT22;5574;48.786;10.120;2023-07-13T07:00:05;20.40;95.20
11043;DHT22;5574;48.786;10.120;2023-07-13T07:02:33;20.50;94.80
11043;DHT22;5574;48.786;10.120;2023-07-13T07:05:00;20.60;95.00
11043;DHT22;5574;48.786;10.120;2023-07-13T07:07:26;20.80;96.40
11043;DHT22;5574;48.786;10.120;2023-07-13T07:09:53;20.80;94.40
11043;DHT22;5574;48.786;10.120;2023-07-13T07:12:20;20.90;94.80
11043;DHT22;5574;48.786;10.120;2023-07-13T07:14:47;21.00;93.80
11043;DHT22;5574;48.786;10.120;2023-07-13T07:17:13;21.20;94.00
11043;DHT22;5574;48.786;10.120;2023-07-13T07:19:41;21.30;93.60
11043;DHT22;5574;48.786;10.120;2023-07-13T07:22:08;21.40;93.60
11043;DHT22;5574;48.786;10.120;2023-07-13T07:24:35;21.20;92.00
11043;DHT22;5574;48.786;10.120;2023-07-13T07:27:01;21.10;92.70
11043;DHT22;5574;48.786;10.120;2023-07-13T07:29:28;21.00;93.30
11043;DHT22;5574;48.786;10.120;2023-07-13T07:31:55;20.90;92.70
11043;DHT22;5574;48.786;10.120;2023-07-13T07:34:22;20.80;93.00
11043;DHT22;5574;48.786;10.120;2023-07-13T07:36:50;20.70;92.60
11043;DHT22;5574;48.786;10.120;2023-07-13T07:39:16;20.70;93.30
11043;DHT22;5574;48.786;10.120;2023-07-13T07:41:43;20.70;93.70
11043;DHT22;5574;48.786;10.120;2023-07-13T07:44:10;20.70;92.80
11043;DHT22;5574;48.786;10.120;2023-07-13T07:46:36;20.70;92.40
11043;DHT22;5574;48.786;10.120;2023-07-13T07:49:03;20.80;92.30
11043;DHT22;5574;48.786;10.120;2023-07-13T07:51:30;20.90;92.20
11043;DHT22;5574;48.786;10.120;2023-07-13T07:53:58;20.90;92.10
11043;DHT22;5574;48.786;10.120;2023-07-13T07:56:25;20.90;90.20
11043;DHT22;5574;48.786;10.120;2023-07-13T07:58:52;21.00;91.90
11043;DHT22;5574;48.786;10.120;2023-07-13T08:01:18;21.00;92.50
11043;DHT22;5574;48.786;10.120;2023-07-13T08:03:45;20.90;92.10
11043;DHT22;5574;48.786;10.120;2023-07-13T08:06:12;20.90;92.50
11043;DHT22;5574;48.786;10.120;2023-07-13T08:08:39;21.00;92.40
11043;DHT22;5574;48.786;10.120;2023-07-13T08:11:08;21.00;92.30
11043;DHT22;5574;48.786;10.120;2023-07-13T08:13:35;21.20;92.80
11043;DHT22;5574;48.786;10.120;2023-07-13T08:16:04;21.30;92.90
11043;DHT22;5574;48.786;10.120;2023-07-13T08:18:31;21.50;92.00
11043;DHT22;5574;48.786;10.120;2023-07-13T08:20:58;21.50;89.30
11043;DHT22;5574;48.786;10.120;2023-07-13T08:23:25;21.50;91.00
11043;DHT22;5574;48.786;10.120;2023-07-13T08:25:52;21.50;88.30
11043;DHT22;5574;48.786;10.120;2023-07-13T08:28:20;21.60;90.10
11043;DHT22;5574;48.786;10.120;2023-07-13T08:30:48;21.60;90.40
11043;DHT22;5574;48.786;10.120;2023-07-13T08:33:15;21.70;90.20
11043;DHT22;5574;48.786;10.120;2023-07-13T08:35:41;21.70;89.20
11043;DHT22;5574;48.786;10.120;2023-07-13T08:38:08;21.80;90.00
11043;DHT22;5574;48.786;10.120;2023-07-13T08:40:35;21.70;90.00
11043;DHT22;5574;48.786;10.120;2023-07-13T08:43:01;21.80;90.00
11043;DHT22;5574;48.786;10.120;2023-07-13T08:45:36;21.80;90.80
11043;DHT22;5574;48.786;10.120;2023-07-13T08:48:09;21.80;90.20
11043;DHT22;5574;48.786;10.120;2023-07-13T08:50:45;21.90;90.00
11043;DHT22;5574;48.786;10.120;2023-07-13T08:53:13;22.10;90.60
11043;DHT22;5574;48.786;10.120;2023-07-13T08:55:41;22.20;90.10
11043;DHT22;5574;48.786;10.120;2023-07-13T08:58:11;22.50;89.70
11043;DHT22;5574;48.786;10.120;2023-07-13T09:00:46;22.60;86.20
11043;DHT22;5574;48.786;10.120;2023-07-13T09:03:20;22.60;88.30
11043;DHT22;5574;48.786;10.120;2023-07-13T09:05:50;22.70;86.20
11043;DHT22;5574;48.786;10.120;2023-07-13T09:08:31;22.80;90.00
11043;DHT22;5574;48.786;10.120;2023-07-13T09:11:04;23.00;87.50
11043;DHT22;5574;48.786;10.120;2023-07-13T09:13:39;23.20;85.60
11043;DHT22;5574;48.786;10.120;2023-07-13T09:16:10;23.20;86.30
11043;DHT22;5574;48.786;10.120;2023-07-13T09:18:41;23.20;85.30
11043;DHT22;5574;48.786;10.120;2023-07-13T09:21:11;23.40;90.80
11043;DHT22;5574;48.786;10.120;2023-07-13T09:23:39;23.50;86.80
11043;DHT22;5574;48.786;10.120;2023-07-13T09:26:11;23.50;84.30
11043;DHT22;5574;48.786;10.120;2023-07-13T09:28:41;23.60;84.00
11043;DHT22;5574;48.786;10.120;2023-07-13T09:31:14;23.70;84.10
11043;DHT22;5574;48.786;10.120;2023-07-13T09:33:41;23.90;88.20
11043;DHT22;5574;48.786;10.120;2023-07-13T09:36:18;23.80;82.10
11043;DHT22;5574;48.786;10.120;2023-07-13T09:38:47;23.70;82.00
11043;DHT22;5574;48.786;10.120;2023-07-13T09:41:19;23.90;85.60
11043;DHT22;5574;48.786;10.120;2023-07-13T09:44:07;24.10;80.10
11043;DHT22;5574;48.786;10.120;2023-07-13T09:46:36;24.30;82.50
11043;DHT22;5574;48.786;10.120;2023-07-13T09:49:03;24.20;77.90
11043;DHT22;5574;48.786;10.120;2023-07-13T09:51:30;24.00;79.60
11043;DHT22;5574;48.786;10.120;2023-07-13T09:53:57;24.20;83.70
11043;DHT22;5574;48.786;10.120;2023-07-13T09:56:26;24.40;80.30
11043;DHT22;5574;48.786;10.120;2023-07-13T09:58:54;24.50;79.40
11043;DHT22;5574;48.786;10.120;2023-07-13T10:01:32;24.70;76.40
11043;DHT22;5574;48.786;10.120;2023-07-13T10:04:00;24.80;79.40
11043;DHT22;5574;48.786;10.120;2023-07-13T10:06:27;25.00;81.00
11043;DHT22;5574;48.786;10.120;2023-07-13T10:08:56;25.10;78.10
11043;DHT22;5574;48.786;10.120;2023-07-13T10:11:25;24.90;75.70
11043;DHT22;5574;48.786;10.120;2023-07-13T10:13:56;24.80;75.70
11043;DHT22;5574;48.786;10.120;2023-07-13T10:16:24;24.90;77.70
11043;DHT22;5574;48.786;10.120;2023-07-13T10:18:55;24.90;73.20
11043;DHT22;5574;48.786;10.120;2023-07-13T10:21:27;25.10;76.20
11043;DHT22;5574;48.786;10.120;2023-07-13T10:23:59;25.30;71.60
11043;DHT22;5574;48.786;10.120;2023-07-13T10:26:32;25.40;66.40
11043;DHT22;5574;48.786;10.120;2023-07-13T10:29:03;25.50;66.60
11043;DHT22;5574;48.786;10.120;2023-07-13T10:31:31;25.60;72.70
11043;DHT22;5574;48.786;10.120;2023-07-13T10:33:57;25.70;68.40
11043;DHT22;5574;48.786;10.120;2023-07-13T10:36:32;25.80;68.60
11043;DHT22;5574;48.786;10.120;2023-07-13T10:39:03;25.90;67.50
11043;DHT22;5574;48.786;10.120;2023-07-13T10:41:34;26.00;66.30
11043;DHT22;5574;48.786;10.120;2023-07-13T10:44:02;26.00;65.10
11043;DHT22;5574;48.786;10.120;2023-07-13T10:46:30;26.10;68.10
11043;DHT22;5574;48.786;10.120;2023-07-13T10:48:59;26.20;65.80
11043;DHT22;5574;48.786;10.120;2023-07-13T10:51:29;26.20;64.80
11043;DHT22;5574;48.786;10.120;2023-07-13T10:54:17;25.80;64.40
11043;DHT22;5574;48.786;10.120;2023-07-13T10:56:45;25.50;64.30
11043;DHT22;5574;48.786;10.120;2023-07-13T10:59:15;25.70;65.00
11043;DHT22;5574;48.786;10.120;2023-07-13T11:01:55;25.70;66.60
11043;DHT22;5574;48.786;10.120;2023-07-13T11:04:23;26.00;66.90
11043;DHT22;5574;48.786;10.120;2023-07-13T11:06:56;26.10;67.70
11043;DHT22;5574;48.786;10.120;2023-07-13T11:09:34;26.10;66.90
11043;DHT22;5574;48.786;10.120;2023-07-13T11:12:07;26.00;63.50
11043;DHT22;5574;48.786;10.120;2023-07-13T11:14:36;25.90;64.00
11043;DHT22;5574;48.786;10.120;2023-07-13T11:17:24;26.00;63.20
11043;DHT22;5574;48.786;10.120;2023-07-13T11:19:52;25.90;66.80
11043;DHT22;5574;48.786;10.120;2023-07-13T11:22:26;25.90;67.30
11043;DHT22;5574;48.786;10.120;2023-07-13T11:25:25;25.90;64.00
11043;DHT22;5574;48.786;10.120;2023-07-13T11:28:17;26.00;64.10
11043;DHT22;5574;48.786;10.120;2023-07-13T11:30:48;25.60;64.60
11043;DHT22;5574;48.786;10.120;2023-07-13T11:33:17;25.50;65.70
11043;DHT22;5574;48.786;10.120;2023-07-13T11:35:50;25.70;64.30
11043;DHT22;5574;48.786;10.120;2023-07-13T11:38:21;25.90;63.10
11043;DHT22;5574;48.786;10.120;2023-07-13T11:40:51;26.20;64.80
11043;DHT22;5574;48.786;10.120;2023-07-13T11:43:20;26.30;64.10
11043;DHT22;5574;48.786;10.120;2023-07-13T11:45:49;26.60;63.00
11043;DHT22;5574;48.786;10.120;2023-07-13T11:48:20;26.40;59.70
11043;DHT22;5574;48.786;10.120;2023-07-13T11:50:53;25.80;59.30
11043;DHT22;5574;48.786;10.120;2023-07-13T11:53:22;25.50;62.10
11043;DHT22;5574;48.786;10.120;2023-07-13T11:55:50;25.70;62.20
11043;DHT22;5574;48.786;10.120;2023-07-13T11:58:21;26.00;61.30
11043;DHT22;5574;48.786;10.120;2023-07-13T12:00:49;26.10;60.70
11043;DHT22;5574;48.786;10.120;2023-07-13T12:03:19;26.30;61.50
11043;DHT22;5574;48.786;10.120;2023-07-13T12:05:58;26.40;63.80
11043;DHT22;5574;48.786;10.120;2023-07-13T12:08:27;26.50;61.70
11043;DHT22;5574;48.786;10.120;2023-07-13T12:10:59;26.50;61.70
11043;DHT22;5574;48.786;10.120;2023-07-13T12:13:27;26.50;64.30
11043;DHT22;5574;48.786;10.120;2023-07-13T12:15:56;26.40;63.70
11043;DHT22;5574;48.786;10.120;2023-07-13T12:18:28;26.40;60.80
11043;DHT22;5574;48.786;10.120;2023-07-13T12:20:58;26.30;62.20
11043;DHT22;5574;48.786;10.120;2023-07-13T12:23:28;26.00;62.00
11043;DHT22;5574;48.786;10.120;2023-07-13T12:25:55;25.70;63.10
11043;DHT22;5574;48.786;10.120;2023-07-13T12:28:31;25.70;62.40
11043;DHT22;5574;48.786;10.120;2023-07-13T12:31:00;25.70;63.50
11043;DHT22;5574;48.786;10.120;2023-07-13T12:33:28;25.70;64.20
11043;DHT22;5574;48.786;10.120;2023-07-13T12:35:55;25.80;63.40
11043;DHT22;5574;48.786;10.120;2023-07-13T12:38:24;26.10;62.40
11043;DHT22;5574;48.786;10.120;2023-07-13T12:40:53;26.00;67.40
11043;DHT22;5574;48.786;10.120;2023-07-13T12:43:20;25.60;67.10
11043;DHT22;5574;48.786;10.120;2023-07-13T12:45:56;25.30;65.70
11043;DHT22;5574;48.786;10.120;2023-07-13T12:48:23;25.20;68.20
11043;DHT22;5574;48.786;10.120;2023-07-13T12:50:50;25.40;66.40
11043;DHT22;5574;48.786;10.120;2023-07-13T12:53:20;25.20;63.50
11043;DHT22;5574;48.786;10.120;2023-07-13T12:55:49;25.30;66.80
11043;DHT22;5574;48.786;10.120;2023-07-13T12:58:22;25.10;67.90
11043;DHT22;5574;48.786;10.120;2023-07-13T13:00:54;25.30;67.20
11043;DHT22;5574;48.786;10.120;2023-07-13T13:03:24;25.20;65.00
11043;DHT22;5574;48.786;10.120;2023-07-13T13:06:00;25.30;67.40
11043;DHT22;5574;48.786;10.120;2023-07-13T13:08:30;25.40;66.90
11043;DHT22;5574;48.786;10.120;2023-07-13T13:10:57;25.60;67.30
11043;DHT22;5574;48.786;10.120;2023-07-13T13:13:25;26.00;70.90
11043;DHT22;5574;48.786;10.120;2023-07-13T13:15:51;26.20;67.10
11043;DHT22;5574;48.786;10.120;2023-07-13T13:18:20;26.40;64.60
11043;DHT22;5574;48.786;10.120;2023-07-13T13:20:48;26.20;64.20
11043;DHT22;5574;48.786;10.120;2023-07-13T13:23:15;26.30;66.30
11043;DHT22;5574;48.786;10.120;2023-07-13T13:25:43;26.50;62.30
11043;DHT22;5574;48.786;10.120;2023-07-13T13:28:14;26.70;65.10
11043;DHT22;5574;48.786;10.120;2023-07-13T13:30:43;26.70;64.10
11043;DHT22;5574;48.786;10.120;2023-07-13T13:33:12;26.80;63.80
11043;DHT22;5574;48.786;10.120;2023-07-13T13:35:40;26.90;63.20
11043;DHT22;5574;48.786;10.120;2023-07-13T13:38:11;26.90;64.90
11043;DHT22;5574;48.786;10.120;2023-07-13T13:40:40;26.70;62.20
11043;DHT22;5574;48.786;10.120;2023-07-13T13:43:18;26.80;63.70
11043;DHT22;5574;48.786;10.120;2023-07-13T13:45:47;26.80;63.20
11043;DHT22;5574;48.786;10.120;2023-07-13T13:48:15;27.00;64.40
11043;DHT22;5574;48.786;10.120;2023-07-13T13:50:43;26.90;64.10
11043;DHT22;5574;48.786;10.120;2023-07-13T13:53:10;26.80;66.40
11043;DHT22;5574;48.786;10.120;2023-07-13T13:55:38;26.40;65.70
11043;DHT22;5574;48.786;10.120;2023-07-13T13:58:04;26.10;65.50
11043;DHT22;5574;48.786;10.120;2023-07-13T14:00:31;25.80;67.80
11043;DHT22;5574;48.786;10.120;2023-07-13T14:02:59;25.70;67.30
11043;DHT22;5574;48.786;10.120;2023-07-13T14:05:27;25.50;66.10
11043;DHT22;5574;48.786;10.120;2023-07-13T14:07:54;25.40;67.30
11043;DHT22;5574;48.786;10.120;2023-07-13T14:10:22;25.50;68.30
11043;DHT22;5574;48.786;10.120;2023-07-13T14:12:52;25.80;68.00
11043;DHT22;5574;48.786;10.120;2023-07-13T14:15:23;25.90;64.80
11043;DHT22;5574;48.786;10.120;2023-07-13T14:17:50;25.90;63.30
11043;DHT22;5574;48.786;10.120;2023-07-13T14:20:19;25.80;66.70
11043;DHT22;5574;48.786;10.120;2023-07-13T14:22:48;25.50;65.90
11043;DHT22;5574;48.786;10.120;2023-07-13T14:25:16;25.40;66.70
11043;DHT22;5574;48.786;10.120;2023-07-13T14:27:44;25.30;64.30
11043;DHT22;5574;48.786;10.120;2023-07-13T14:30:15;25.40;68.20
11043;DHT22;5574;48.786;10.120;2023-07-13T14:32:42;25.70;65.20
11043;DHT22;5574;48.786;10.120;2023-07-13T14:35:10;25.60;63.70
11043;DHT22;5574;48.786;10.120;2023-07-13T14:37:39;25.80;65.00
11043;DHT22;5574;48.786;10.120;2023-07-13T14:40:13;26.10;66.30
11043;DHT22;5574;48.786;10.120;2023-07-13T14:42:40;26.30;65.80
11043;DHT22;5574;48.786;10.120;2023-07-13T14:45:13;26.40;63.90
11043;DHT22;5574;48.786;10.120;2023-07-13T14:47:40;26.60;64.10
11043;DHT22;5574;48.786;10.120;2023-07-13T14:50:13;26.60;63.10
11043;DHT22;5574;48.786;10.120;2023-07-13T14:52:41;26.60;64.10
11043;DHT22;5574;48.786;10.120;2023-07-13T14:55:10;26.50;62.80
11043;DHT22;5574;48.786;10.120;2023-07-13T14:57:37;26.40;64.40
11043;DHT22;5574;48.786;10.120;2023-07-13T15:00:07;26.40;63.20
11043;DHT22;5574;48.786;10.120;2023-07-13T15:02:38;26.50;61.70
11043;DHT22;5574;48.786;10.120;2023-07-13T15:05:12;26.50;61.70
11043;DHT22;5574;48.786;10.120;2023-07-13T15:07:41;26.50;60.70
11043;DHT22;5574;48.786;10.120;2023-07-13T15:10:14;26.50;62.50
11043;DHT22;5574;48.786;10.120;2023-07-13T15:12:40;26.50;63.80
11043;DHT22;5574;48.786;10.120;2023-07-13T15:15:08;26.50;63.60
11043;DHT22;5574;48.786;10.120;2023-07-13T15:17:37;26.20;61.50
11043;DHT22;5574;48.786;10.120;2023-07-13T15:20:13;25.80;63.50
11043;DHT22;5574;48.786;10.120;2023-07-13T15:22:43;25.50;63.90
11043;DHT22;5574;48.786;10.120;2023-07-13T15:25:14;25.40;65.30
11043;DHT22;5574;48.786;10.120;2023-07-13T15:27:41;25.40;62.80
11043;DHT22;5574;48.786;10.120;2023-07-13T15:30:09;25.30;64.10
11043;DHT22;5574;48.786;10.120;2023-07-13T15:32:36;25.30;65.20
11043;DHT22;5574;48.786;10.120;2023-07-13T15:35:03;25.20;66.00
11043;DHT22;5574;48.786;10.120;2023-07-13T15:37:29;25.10;66.90
11043;DHT22;5574;48.786;10.120;2023-07-13T15:39:57;25.00;63.80